createdAt,value
2018-04-12T00:00:30.515Z,46.92
2018-04-12T00:02:57.148Z,43.65
2018-04-12T00:05:24.088Z,46.10
2018-04-12T00:07:54.839Z,43.03
2018-04-12T00:10:21.518Z,44.88
2018-04-12T00:12:48.870Z,43.58
2018-04-12T00:15:15.588Z,43.03
2018-04-12T00:17:46.230Z,41.45
2018-04-12T00:20:13.853Z,44.17
2018-04-12T00:22:40.506Z,45.47
2018-04-12T00:25:07.202Z,43.38
2018-04-12T00:27:34.584Z,43.80
2018-04-12T00:30:01.191Z,45.10
2018-04-12T00:32:28.307Z,46.88
2018-04-12T00:34:55.105Z,44.28
2018-04-12T00:37:21.761Z,44.55
2018-04-12T00:39:48.403Z,45.38
2018-04-12T00:42:15.079Z,44.53
2018-04-12T00:44:41.731Z,43.75
2018-04-12T00:47:08.390Z,44.20
2018-04-12T00:49:35.106Z,46.70
2018-04-12T00:52:01.731Z,47.03
2018-04-12T00:54:28.364Z,46.85
2018-04-12T00:56:55.010Z,43.72
2018-04-12T00:59:21.677Z,47.10
2018-04-12T01:01:48.324Z,47.62
2018-04-12T01:04:15.838Z,45.75
2018-04-12T01:06:43.791Z,48.35
2018-04-12T01:09:10.446Z,43.60
2018-04-12T01:11:37.103Z,49.42
2018-04-12T01:14:07.839Z,49.80
2018-04-12T01:16:34.474Z,45.20
2018-04-12T01:19:01.176Z,45.92
2018-04-12T01:21:27.817Z,46.35
2018-04-12T01:23:54.514Z,48.78
2018-04-12T01:26:21.874Z,48.67
2018-04-12T01:28:54.345Z,43.05
2018-04-12T01:31:21.002Z,46.65
2018-04-12T01:33:48.239Z,50.03
2018-04-12T01:36:16.995Z,49.63
2018-04-12T01:38:43.619Z,50.25
2018-04-12T01:41:10.990Z,49.08
2018-04-12T01:43:37.700Z,54.92
2018-04-12T01:46:04.353Z,54.28
2018-04-12T01:48:31.071Z,52.17
2018-04-12T01:50:58.441Z,55.10
2018-04-12T01:53:25.133Z,51.03
2018-04-12T01:55:52.541Z,50.55
2018-04-12T01:58:19.230Z,51.75
2018-04-12T02:00:46.066Z,54.17
2018-04-12T02:03:12.817Z,55.00
2018-04-12T02:05:39.493Z,54.65
2018-04-12T02:08:06.163Z,56.17
2018-04-12T02:10:33.214Z,51.95
2018-04-12T02:13:01.815Z,57.03
2018-04-12T02:15:28.992Z,62.65
2018-04-12T02:17:55.655Z,54.72
2018-04-12T02:20:22.304Z,51.25
2018-04-12T02:22:49.007Z,54.35
2018-04-12T02:25:15.646Z,50.00
2018-04-12T02:27:42.271Z,54.08
2018-04-12T02:30:09.549Z,54.38
2018-04-12T02:32:36.227Z,53.28
2018-04-12T02:35:02.954Z,55.28
2018-04-12T02:37:29.528Z,52.67
2018-04-12T02:39:56.344Z,51.03
2018-04-12T02:42:23.042Z,52.13
2018-04-12T02:44:49.712Z,51.75
2018-04-12T02:47:16.375Z,56.28
2018-04-12T02:49:43.075Z,57.20
2018-04-12T02:52:09.760Z,53.35
2018-04-12T02:54:39.114Z,53.05
2018-04-12T02:57:06.992Z,57.35
2018-04-12T02:59:34.567Z,56.90
2018-04-12T03:02:01.216Z,52.50
2018-04-12T03:04:27.901Z,56.78
2018-04-12T03:06:54.537Z,58.80
2018-04-12T03:09:21.223Z,53.67
2018-04-12T03:11:47.842Z,55.78
2018-04-12T03:14:14.467Z,57.67
2018-04-12T03:16:41.195Z,56.70
2018-04-12T03:19:07.891Z,60.50
2018-04-12T03:21:38.786Z,62.70
2018-04-12T03:24:05.574Z,65.28
2018-04-12T03:26:32.194Z,67.00
2018-04-12T03:28:59.896Z,64.03
2018-04-12T03:31:26.576Z,56.28
2018-04-12T03:33:53.540Z,63.17
2018-04-12T03:36:20.240Z,64.50
2018-04-12T03:38:47.991Z,61.65
2018-04-12T03:41:14.966Z,68.45
2018-04-12T03:43:42.271Z,62.15
2018-04-12T03:46:08.997Z,59.20
2018-04-12T03:48:35.661Z,67.95
2018-04-12T03:51:03.306Z,60.47
2018-04-12T03:53:30.031Z,62.28
2018-04-12T03:55:57.339Z,61.15
2018-04-12T03:58:23.985Z,65.40
2018-04-12T04:00:52.554Z,67.50
2018-04-12T04:03:19.204Z,64.80
2018-04-12T04:05:46.246Z,68.82
2018-04-12T04:08:12.952Z,62.22
2018-04-12T04:10:45.436Z,68.60
2018-04-12T04:13:12.118Z,68.07
2018-04-12T04:15:44.748Z,68.70
2018-04-12T04:18:17.710Z,71.40
2018-04-12T04:20:50.172Z,71.72
2018-04-12T04:23:16.873Z,81.28
2018-04-12T04:25:43.530Z,67.80
2018-04-12T04:28:10.205Z,66.57
2018-04-12T04:30:36.863Z,69.18
2018-04-12T04:33:07.427Z,69.57
2018-04-12T04:35:34.126Z,74.78
2018-04-12T04:38:00.807Z,87.72
2018-04-12T04:40:27.518Z,78.55
2018-04-12T04:42:54.264Z,74.93
2018-04-12T04:45:20.922Z,85.50
2018-04-12T04:47:47.593Z,82.85
2018-04-12T04:50:14.290Z,80.87
2018-04-12T04:52:40.962Z,82.10
2018-04-12T04:55:08.194Z,74.28
2018-04-12T04:57:35.405Z,88.18
2018-04-12T05:00:02.776Z,78.82
2018-04-12T05:02:29.463Z,77.57
2018-04-12T05:04:57.891Z,81.25
2018-04-12T05:07:28.633Z,75.62
2018-04-12T05:09:55.461Z,78.50
2018-04-12T05:12:23.006Z,77.87
2018-04-12T05:14:49.765Z,74.70
2018-04-12T05:17:16.486Z,85.38
2018-04-12T05:19:47.835Z,82.62
2018-04-12T05:22:14.878Z,76.32
2018-04-12T05:24:41.507Z,78.57
2018-04-12T05:27:08.199Z,68.97
2018-04-12T05:29:35.782Z,78.60
2018-04-12T05:32:02.455Z,75.90
2018-04-12T05:34:29.154Z,74.60
2018-04-12T05:36:57.675Z,72.70
2018-04-12T05:39:24.295Z,76.43
2018-04-12T05:41:51.570Z,71.62
2018-04-12T05:44:23.326Z,73.65
2018-04-12T05:46:50.059Z,64.43
2018-04-12T05:49:17.235Z,69.97
2018-04-12T05:51:43.911Z,67.70
2018-04-12T05:54:11.862Z,64.82
2018-04-12T05:56:38.632Z,68.20
2018-04-12T05:59:05.338Z,66.97
2018-04-12T06:01:32.026Z,65.60
2018-04-12T06:03:58.797Z,63.60
2018-04-12T06:06:30.291Z,64.90
2018-04-12T06:08:57.102Z,69.18
2018-04-12T06:11:24.639Z,66.47
2018-04-12T06:13:51.341Z,66.15
2018-04-12T06:16:18.011Z,64.40
2018-04-12T06:18:44.715Z,70.95
2018-04-12T06:21:11.394Z,66.85
2018-04-12T06:23:38.043Z,63.40
2018-04-12T06:26:04.743Z,59.70
2018-04-12T06:28:32.307Z,63.13
2018-04-12T06:30:58.990Z,57.08
2018-04-12T06:33:25.690Z,57.10
2018-04-12T06:35:52.312Z,62.30
2018-04-12T06:38:18.987Z,57.83
2018-04-12T06:40:45.599Z,63.17
2018-04-12T06:43:12.243Z,56.95
2018-04-12T06:45:39.180Z,60.60
2018-04-12T06:48:05.915Z,57.67
2018-04-12T06:50:32.695Z,60.53
2018-04-12T06:52:59.491Z,60.78
2018-04-12T06:55:26.240Z,59.75
2018-04-12T06:57:52.999Z,59.45
2018-04-12T07:00:20.001Z,59.30
2018-04-12T07:02:46.855Z,56.53
2018-04-12T07:05:13.792Z,59.60
2018-04-12T07:07:40.776Z,57.80
2018-04-12T07:10:07.597Z,59.47
2018-04-12T07:12:34.492Z,56.30
2018-04-12T07:15:01.296Z,54.95
2018-04-12T07:17:28.197Z,53.95
2018-04-12T07:19:54.905Z,57.10
2018-04-12T07:22:21.629Z,56.28
2018-04-12T07:24:49.111Z,54.50
2018-04-12T07:27:15.923Z,57.20
2018-04-12T07:29:43.453Z,53.38
2018-04-12T07:32:10.909Z,55.55
2018-04-12T07:34:37.574Z,51.03
2018-04-12T07:37:04.381Z,50.08
2018-04-12T07:39:31.453Z,47.62
2018-04-12T07:41:58.263Z,46.85
2018-04-12T07:44:25.073Z,51.40
2018-04-12T07:46:51.907Z,57.35
2018-04-12T07:49:18.752Z,49.67
2018-04-12T07:51:45.635Z,50.67
2018-04-12T07:54:12.346Z,47.20
2018-04-12T07:56:39.058Z,47.40
2018-04-12T07:59:05.820Z,53.95
2018-04-12T08:01:32.543Z,46.95
2018-04-12T08:03:59.244Z,48.92
2018-04-12T08:06:25.957Z,51.53
2018-04-12T08:08:52.776Z,48.42
2018-04-12T08:11:19.549Z,46.20
2018-04-12T08:13:46.300Z,47.85
2018-04-12T08:16:13.090Z,47.90
2018-04-12T08:18:39.860Z,45.40
2018-04-12T08:21:06.609Z,46.63
2018-04-12T08:23:33.494Z,47.08
2018-04-12T08:26:00.386Z,44.88
2018-04-12T08:28:27.105Z,49.63
2018-04-12T08:30:53.921Z,45.00
2018-04-12T08:33:20.726Z,49.30
2018-04-12T08:35:47.477Z,95.72
2018-04-12T08:38:14.213Z,45.30
2018-04-12T08:40:41.056Z,43.47
2018-04-12T08:43:07.766Z,43.53
2018-04-12T08:45:35.345Z,46.35
2018-04-12T08:48:02.850Z,40.72
2018-04-12T08:50:29.584Z,40.80
2018-04-12T08:52:56.342Z,41.63
2018-04-12T08:55:23.202Z,40.10
2018-04-12T09:24:35.389Z,37.60
2018-04-12T09:27:02.343Z,36.58
2018-04-12T09:29:29.125Z,37.28
2018-04-12T09:31:55.872Z,36.53
2018-04-12T09:34:22.697Z,39.50
2018-04-12T09:36:49.495Z,37.10
2018-04-12T09:39:16.358Z,38.90
2018-04-12T09:41:43.182Z,35.45
2018-04-12T09:44:09.903Z,40.20
2018-04-12T09:46:36.540Z,35.50
2018-04-12T09:49:03.346Z,35.53
2018-04-12T09:51:30.853Z,36.03
2018-04-12T09:53:57.631Z,36.42
2018-04-12T09:56:24.407Z,37.42
2018-04-12T09:58:51.269Z,45.85
2018-04-12T10:01:18.095Z,36.30
2018-04-12T10:03:44.976Z,34.92
2018-04-12T10:06:17.444Z,36.78
2018-04-12T10:08:44.210Z,36.63
2018-04-12T10:11:11.073Z,37.58
2018-04-12T10:13:37.882Z,38.67
2018-04-12T10:16:05.778Z,39.50
2018-04-12T10:18:32.593Z,36.88
2018-04-12T10:20:59.369Z,36.53
2018-04-12T10:23:26.133Z,38.22
2018-04-12T10:25:52.978Z,38.72
2018-04-12T10:28:19.775Z,38.00
2018-04-12T10:30:46.741Z,37.85
2018-04-12T10:33:13.460Z,39.10
2018-04-12T10:35:40.228Z,39.30
2018-04-12T10:38:07.019Z,37.83
2018-04-12T10:40:33.798Z,37.40
2018-04-12T10:43:00.624Z,39.65
2018-04-12T10:45:27.435Z,38.30
2018-04-12T10:47:54.238Z,36.15
2018-04-12T10:50:21.032Z,42.38
2018-04-12T10:52:48.017Z,39.53
2018-04-12T10:55:14.898Z,38.30
2018-04-12T10:57:41.546Z,40.58
2018-04-12T11:00:08.293Z,37.22
2018-04-12T11:02:35.083Z,44.25
2018-04-12T11:05:01.905Z,41.58
2018-04-12T11:07:28.632Z,38.67
2018-04-12T11:09:55.371Z,63.80
2018-04-12T11:12:22.128Z,38.25
2018-04-12T11:14:48.939Z,39.55
2018-04-12T11:17:15.715Z,42.90
2018-04-12T11:19:42.673Z,40.58
2018-04-12T11:22:09.489Z,45.92
2018-04-12T11:24:36.280Z,39.30
2018-04-12T11:27:03.100Z,42.20
2018-04-12T11:29:29.915Z,42.35
2018-04-12T11:31:56.711Z,38.08
2018-04-12T11:34:23.627Z,37.70
2018-04-12T11:36:50.381Z,43.08
2018-04-12T11:39:17.159Z,38.23
2018-04-12T11:41:43.996Z,44.60
2018-04-12T11:44:10.784Z,44.22
2018-04-12T11:46:37.676Z,38.75
2018-04-12T11:49:04.596Z,44.47
2018-04-12T11:51:31.421Z,41.55
2018-04-12T11:53:58.175Z,42.88
2018-04-12T11:56:24.911Z,53.00
2018-04-12T11:58:51.720Z,48.17
2018-04-12T12:01:18.721Z,45.78
2018-04-12T12:03:45.509Z,39.47
2018-04-12T12:06:12.296Z,41.30
2018-04-12T12:08:39.182Z,45.12
2018-04-12T12:11:05.952Z,44.55
2018-04-12T12:13:32.823Z,43.58
2018-04-12T12:15:59.600Z,42.17
2018-04-12T12:18:26.409Z,45.03
2018-04-12T12:20:53.215Z,47.42
2018-04-12T12:23:20.067Z,46.08
2018-04-12T12:25:46.822Z,45.35
2018-04-12T12:28:13.626Z,44.40
2018-04-12T12:30:40.413Z,88.05
2018-04-12T12:33:07.252Z,45.00
2018-04-12T12:35:34.010Z,45.88
2018-04-12T12:38:00.858Z,45.65
2018-04-12T12:40:27.727Z,45.78
2018-04-12T12:42:54.538Z,43.17
2018-04-12T12:45:21.579Z,47.45
2018-04-12T12:47:48.311Z,45.53
2018-04-12T12:50:15.070Z,50.58
2018-04-12T12:52:41.796Z,46.97
2018-04-12T12:55:08.657Z,129.55
2018-04-12T12:57:35.454Z,54.72
2018-04-12T13:00:02.292Z,43.67
2018-04-12T13:02:29.078Z,47.20
2018-04-12T13:04:55.861Z,46.88
2018-04-12T13:07:22.631Z,47.70
2018-04-12T13:09:49.493Z,59.75
2018-04-12T13:12:16.298Z,49.30
2018-04-12T13:14:43.079Z,45.20
2018-04-12T13:17:09.879Z,48.25
2018-04-12T13:19:36.673Z,51.42
2018-04-12T13:22:03.377Z,46.80
2018-04-12T13:24:30.231Z,47.47
2018-04-12T13:26:57.044Z,51.30
2018-04-12T13:29:23.892Z,47.53
2018-04-12T13:31:50.886Z,46.27
2018-04-12T13:34:17.731Z,46.25
2018-04-12T13:36:45.237Z,48.70
2018-04-12T13:39:13.091Z,46.58
2018-04-12T13:41:39.874Z,48.03
2018-04-12T13:44:06.581Z,47.50
2018-04-12T13:46:33.490Z,53.90
2018-04-12T13:49:00.178Z,55.60
2018-04-12T13:51:26.974Z,57.30
2018-04-12T13:53:53.847Z,51.47
2018-04-12T13:56:20.692Z,50.58
2018-04-12T13:58:47.528Z,51.30
2018-04-12T14:01:14.304Z,50.60
2018-04-12T14:03:41.442Z,52.17
2018-04-12T14:06:08.254Z,50.57
2018-04-12T14:08:35.008Z,54.40
2018-04-12T14:11:01.847Z,49.35
2018-04-12T14:13:28.715Z,47.70
2018-04-12T14:15:55.622Z,51.20
2018-04-12T14:18:22.393Z,55.25
2018-04-12T14:20:49.119Z,50.47
2018-04-12T14:23:15.935Z,51.53
2018-04-12T14:25:42.743Z,55.73
2018-04-12T14:28:09.449Z,52.37
2018-04-12T14:30:36.373Z,50.43
2018-04-12T14:33:03.250Z,49.47
2018-04-12T14:35:30.016Z,51.43
2018-04-12T14:37:56.819Z,49.70
2018-04-12T14:40:23.561Z,50.23
2018-04-12T14:42:50.310Z,53.03
2018-04-12T14:45:17.189Z,57.10
2018-04-12T14:47:44.084Z,51.00
2018-04-12T14:50:10.839Z,55.15
2018-04-12T14:52:37.702Z,51.30
2018-04-12T14:55:04.615Z,61.08
2018-04-12T14:57:31.436Z,53.25
2018-04-12T14:59:58.314Z,50.83
2018-04-12T15:02:25.063Z,51.37
2018-04-12T15:04:52.059Z,51.63
2018-04-12T15:07:18.890Z,53.80
2018-04-12T15:09:45.799Z,52.05
2018-04-12T15:12:12.587Z,48.20
2018-04-12T15:14:39.493Z,53.13
2018-04-12T15:17:06.478Z,49.08
2018-04-12T15:19:33.331Z,54.08
2018-04-12T15:22:00.130Z,48.73
2018-04-12T15:24:26.905Z,52.93
2018-04-12T15:26:53.671Z,47.28
2018-04-12T15:29:20.473Z,52.30
2018-04-12T15:31:47.239Z,54.00
2018-04-12T15:34:14.038Z,51.60
2018-04-12T15:36:40.845Z,48.17
2018-04-12T15:39:07.753Z,53.95
2018-04-12T15:41:34.530Z,48.38
2018-04-12T15:44:01.421Z,50.12
2018-04-12T15:46:28.306Z,51.77
2018-04-12T15:48:55.053Z,53.42
2018-04-12T15:51:21.908Z,51.47
2018-04-12T15:53:48.788Z,51.22
2018-04-12T15:56:15.519Z,49.97
2018-04-12T15:58:42.404Z,51.70
2018-04-12T16:01:09.128Z,46.53
2018-04-12T16:03:36.057Z,49.20
2018-04-12T16:06:03.104Z,49.80
2018-04-12T16:08:29.848Z,50.03
2018-04-12T16:10:56.685Z,53.13
2018-04-12T16:13:23.483Z,49.87
2018-04-12T16:15:50.344Z,51.95
2018-04-12T16:18:17.219Z,49.37
2018-04-12T16:20:44.025Z,51.50
2018-04-12T16:23:10.909Z,49.30
2018-04-12T16:25:37.891Z,49.35
2018-04-12T16:28:04.716Z,51.60
2018-04-12T16:30:31.605Z,49.78
2018-04-12T16:32:58.347Z,48.73
2018-04-12T16:35:25.341Z,53.30
2018-04-12T16:37:52.284Z,54.63
2018-04-12T16:40:20.587Z,51.67
2018-04-12T16:42:47.365Z,52.30
2018-04-12T16:45:14.286Z,52.62
2018-04-12T16:47:41.070Z,51.83
2018-04-12T16:50:07.872Z,54.80
2018-04-12T16:52:34.821Z,50.17
2018-04-12T16:55:01.763Z,57.70
2018-04-12T16:57:29.460Z,52.40
2018-04-12T16:59:56.353Z,52.35
2018-04-12T17:02:23.205Z,52.00
2018-04-12T17:04:50.108Z,55.50
2018-04-12T17:07:16.929Z,54.85
2018-04-12T17:09:44.327Z,55.25
2018-04-12T17:12:11.528Z,50.47
2018-04-12T17:14:38.370Z,52.97
2018-04-12T17:17:05.148Z,53.22
2018-04-12T17:19:31.999Z,53.00
2018-04-12T17:21:59.012Z,54.65
2018-04-12T17:24:26.341Z,55.37
2018-04-12T17:26:53.255Z,54.80
2018-04-12T17:29:20.029Z,51.72
2018-04-12T17:31:47.069Z,54.97
2018-04-12T17:34:13.874Z,53.72
2018-04-12T17:36:40.758Z,52.78
2018-04-12T17:39:07.700Z,54.35
2018-04-12T17:41:35.137Z,55.92
2018-04-12T17:44:02.527Z,54.47
2018-04-12T17:46:31.315Z,50.88
2018-04-12T17:48:58.844Z,53.50
2018-04-12T17:51:26.572Z,51.15
2018-04-12T17:53:54.637Z,51.88
2018-04-12T17:56:22.632Z,54.58
2018-04-12T17:58:54.296Z,54.88
2018-04-12T18:01:25.435Z,50.05
2018-04-12T18:03:52.389Z,53.13
2018-04-12T18:06:19.355Z,58.47
2018-04-12T18:08:46.343Z,55.65
2018-04-12T18:11:17.994Z,57.75
2018-04-12T18:13:45.130Z,54.83
2018-04-12T18:16:12.077Z,55.17
2018-04-12T18:18:38.998Z,54.55
2018-04-12T18:21:06.006Z,61.50
2018-04-12T18:23:32.848Z,53.78
2018-04-12T18:26:03.281Z,58.95
2018-04-12T18:28:30.322Z,68.60
2018-04-12T18:30:57.515Z,56.30
2018-04-12T18:33:25.333Z,64.25
2018-04-12T18:35:52.219Z,58.50
2018-04-12T18:38:19.271Z,56.33
2018-04-12T18:40:47.907Z,58.85
2018-04-12T18:43:14.783Z,63.97
2018-04-12T18:45:42.067Z,56.22
2018-04-12T18:48:09.537Z,58.00
2018-04-12T18:50:36.811Z,63.45
2018-04-12T18:53:03.837Z,59.63
2018-04-12T18:55:30.740Z,82.62
2018-04-12T18:57:57.713Z,60.97
2018-04-12T19:00:28.720Z,57.47
2018-04-12T19:02:55.850Z,56.47
2018-04-12T19:05:22.754Z,56.85
2018-04-12T19:07:49.649Z,56.05
2018-04-12T19:10:16.839Z,58.85
2018-04-12T19:12:45.353Z,59.50
2018-04-12T19:15:12.204Z,62.55
2018-04-12T19:17:39.144Z,59.03
2018-04-12T19:20:10.447Z,60.95
2018-04-12T19:22:38.010Z,61.88
2018-04-12T19:25:19.465Z,57.65
2018-04-12T19:27:46.539Z,62.40
2018-04-12T19:30:14.697Z,56.60
2018-04-12T19:32:42.461Z,61.53
2018-04-12T19:35:09.595Z,62.58
2018-04-12T19:37:36.294Z,62.10
2018-04-12T19:40:03.532Z,64.10
2018-04-12T19:42:30.215Z,57.97
2018-04-12T19:44:57.057Z,61.50
2018-04-12T19:47:23.770Z,60.00
2018-04-12T19:49:50.569Z,65.53
2018-04-12T19:52:17.339Z,64.85
2018-04-12T19:54:44.361Z,61.25
2018-04-12T19:57:12.647Z,64.53
2018-04-12T19:59:39.777Z,58.03
2018-04-12T20:02:07.265Z,59.95
2018-04-12T20:04:35.883Z,59.08
2018-04-12T20:07:02.678Z,60.28
2018-04-12T20:09:31.123Z,58.38
2018-04-12T20:12:01.523Z,65.72
2018-04-12T20:14:30.479Z,61.67
2018-04-12T20:16:57.551Z,61.33
2018-04-12T20:19:24.291Z,58.78
2018-04-12T20:21:55.277Z,61.55
2018-04-12T20:24:22.288Z,60.20
2018-04-12T20:26:49.075Z,63.85
2018-04-12T20:29:16.241Z,56.30
2018-04-12T20:31:43.611Z,62.83
2018-04-12T20:34:14.538Z,57.78
2018-04-12T20:36:41.229Z,58.83
2018-04-12T20:39:08.340Z,58.47
2018-04-12T20:41:35.032Z,59.90
2018-04-12T20:44:05.697Z,65.90
2018-04-12T20:46:32.362Z,57.38
2018-04-12T20:48:59.001Z,61.53
2018-04-12T20:51:29.462Z,59.65
2018-04-12T20:53:56.373Z,57.83
2018-04-12T20:56:27.049Z,61.83
2018-04-12T20:58:53.989Z,63.97
2018-04-12T21:01:20.694Z,59.85
2018-04-12T21:03:47.385Z,60.47
2018-04-12T21:06:14.692Z,62.35
2018-04-12T21:08:41.395Z,60.75
2018-04-12T21:11:08.510Z,65.12
2018-04-12T21:13:35.253Z,60.55
2018-04-12T21:16:02.027Z,61.37
2018-04-12T21:18:28.778Z,60.38
2018-04-12T21:20:55.425Z,64.60
2018-04-12T21:23:22.210Z,63.60
2018-04-12T21:25:48.837Z,59.58
2018-04-12T21:28:15.527Z,60.10
2018-04-12T21:30:42.217Z,60.85
2018-04-12T21:33:08.864Z,62.92
2018-04-12T21:35:36.171Z,61.15
2018-04-12T21:38:03.728Z,61.80
2018-04-12T21:40:30.398Z,58.60
2018-04-12T21:42:57.047Z,60.45
2018-04-12T21:45:23.797Z,63.50
2018-04-12T21:47:50.983Z,62.35
2018-04-12T21:50:17.641Z,57.95
2018-04-12T21:52:44.288Z,62.83
2018-04-12T21:55:11.195Z,60.05
2018-04-12T21:57:37.854Z,63.20
2018-04-12T22:00:05.144Z,62.83
2018-04-12T22:02:40.242Z,64.45
2018-04-12T22:05:07.001Z,60.97
2018-04-12T22:07:33.790Z,63.83
2018-04-12T22:10:00.464Z,67.18
2018-04-12T22:12:27.478Z,59.45
2018-04-12T22:14:54.368Z,64.03
2018-04-12T22:17:22.651Z,63.42
2018-04-12T22:19:49.375Z,64.45
2018-04-12T22:22:16.054Z,61.47
2018-04-12T22:24:43.313Z,62.67
2018-04-12T22:27:10.015Z,63.97
2018-04-12T22:29:36.691Z,63.05
2018-04-12T22:32:03.347Z,66.53
2018-04-12T22:34:30.723Z,66.28
2018-04-12T22:36:58.134Z,66.95
2018-04-12T22:39:28.909Z,67.37
2018-04-12T22:41:56.180Z,66.05
2018-04-12T22:44:23.181Z,66.45
2018-04-12T22:46:56.128Z,42.03
2018-04-12T22:49:22.899Z,48.60
2018-04-12T22:51:49.542Z,56.92
2018-04-12T22:54:16.183Z,50.75
2018-04-12T22:56:42.908Z,54.20
2018-04-12T22:59:09.560Z,49.67
2018-04-12T23:01:36.192Z,51.00
2018-04-12T23:04:03.527Z,49.65
2018-04-12T23:06:30.243Z,52.88
2018-04-12T23:08:57.590Z,55.80
2018-04-12T23:11:25.096Z,49.30
2018-04-12T23:14:00.180Z,47.00
2018-04-12T23:16:26.870Z,49.22
2018-04-12T23:18:54.244Z,49.55
2018-04-12T23:21:22.528Z,48.65
2018-04-12T23:23:49.647Z,45.75
2018-04-12T23:26:20.335Z,47.05
2018-04-12T23:28:48.106Z,43.10
2018-04-12T23:31:14.770Z,46.37
2018-04-12T23:33:41.525Z,38.13
2018-04-12T23:36:08.915Z,44.30
2018-04-12T23:38:35.708Z,45.30
2018-04-12T23:41:03.275Z,45.42
2018-04-12T23:43:30.211Z,47.50
2018-04-12T23:45:56.980Z,50.05
2018-04-12T23:48:23.602Z,48.92
2018-04-12T23:50:50.275Z,47.10
2018-04-12T23:53:16.951Z,49.28
2018-04-12T23:55:43.614Z,48.50
2018-04-12T23:58:10.254Z,53.45
